Time;durP1;ratioP1;P1;durP2;ratioP2;P2;SDS_P1;SDS_P2;PMS_P1;PMS_P2;Temp;Humidity;BMP_temperature;BMP_pressure;BME280_temperature;BME280_humidity;BME280_pressure;Samples;Min_cycle;Max_cycle;Signal;HPM_P1;HPM_P2
2023/06/30 00:00:52;;;;;;;23.77;11.93;;;;;;;-147.65;100.00;57646.63;10413585;28;20050;-90
2023/06/30 00:05:53;;;;;;;17.98;9.68;;;;;;;-147.65;100.00;57646.63;10410309;28;20037;-90
2023/06/30 00:10:53;;;;;;;13.18;9.25;;;;;;;-147.65;100.00;57646.63;10447066;28;20497;-89
2023/06/30 00:15:54;;;;;;;22.13;12.25;;;;;;;-147.65;100.00;57646.63;10399185;28;20033;-90
2023/06/30 00:20:54;;;;;;;18.70;10.80;;;;;;;-147.65;100.00;57646.63;10361987;28;20498;-88
2023/06/30 00:25:55;;;;;;;18.75;12.32;;;;;;;-147.65;100.00;57646.63;10392747;28;20539;-87
2023/06/30 00:30:56;;;;;;;20.38;12.98;;;;;;;-147.65;100.00;57646.63;10401123;28;20110;-86
2023/06/30 00:35:56;;;;;;;19.85;11.68;;;;;;;-147.65;100.00;57646.63;10435664;28;20050;-90
2023/06/30 00:40:57;;;;;;;17.38;11.93;;;;;;;-147.65;100.00;57646.63;10361066;28;20549;-91
2023/06/30 00:45:57;;;;;;;27.95;14.13;;;;;;;-147.65;100.00;57646.63;10401989;28;20029;-91
2023/06/30 00:50:58;;;;;;;19.17;12.23;;;;;;;-147.65;100.00;57646.63;10398498;28;20033;-90
2023/06/30 00:55:58;;;;;;;25.02;13.63;;;;;;;-147.65;100.00;57646.63;10411968;28;20112;-91
2023/06/30 01:01:18;;;;;;;25.83;14.05;;;;;;;-147.65;100.00;57646.63;10416239;28;20048;-92
2023/06/30 01:06:37;;;;;;;29.40;13.93;;;;;;;-147.65;100.00;57646.63;10399453;28;20128;-92
2023/06/30 01:11:37;;;;;;;22.45;13.80;;;;;;;-147.65;100.00;57646.63;10418184;28;20639;-93
2023/06/30 01:16:38;;;;;;;23.35;13.13;;;;;;;-147.65;100.00;57646.63;10443691;28;20033;-93
2023/06/30 01:21:39;;;;;;;21.48;14.82;;;;;;;-147.65;100.00;57646.63;10428919;28;20099;-93
2023/06/30 01:26:41;;;;;;;21.13;14.10;;;;;;;-147.65;100.00;57646.63;10432823;28;20048;-95
2023/06/30 01:31:43;;;;;;;21.02;13.35;;;;;;;-147.65;100.00;57646.63;10413361;28;20053;-95
2023/06/30 01:36:44;;;;;;;19.63;13.73;;;;;;;-147.65;100.00;57646.63;10405693;28;20041;-95
2023/06/30 01:41:44;;;;;;;21.50;13.50;;;;;;;-147.65;100.00;57646.63;10412563;28;20039;-94
2023/06/30 01:46:45;;;;;;;20.92;13.85;;;;;;;-147.65;100.00;57646.63;10443959;28;20056;-92
2023/06/30 01:51:45;;;;;;;18.30;12.57;;;;;;;-147.65;100.00;57646.63;10395104;28;20056;-93
2023/06/30 01:56:49;;;;;;;25.58;12.35;;;;;;;-147.65;100.00;57646.63;10413888;28;20123;-93
2023/06/30 02:01:50;;;;;;;20.15;13.70;;;;;;;-147.65;100.00;57646.63;10442706;28;20049;-92
2023/06/30 02:06:50;;;;;;;23.65;12.55;;;;;;;-147.65;100.00;57646.63;10433075;28;20033;-91
2023/06/30 02:11:51;;;;;;;26.90;13.00;;;;;;;-147.65;100.00;57646.63;10402329;28;20045;-94
2023/06/30 02:16:51;;;;;;;20.65;10.85;;;;;;;-147.65;100.00;57646.63;10374458;28;20175;-92
2023/06/30 02:21:52;;;;;;;19.90;11.55;;;;;;;-147.65;100.00;57646.63;10442176;28;20100;-91
2023/06/30 02:26:52;;;;;;;16.67;12.02;;;;;;;-147.65;100.00;57646.63;10415641;28;20041;-91
2023/06/30 02:31:53;;;;;;;19.08;10.02;;;;;;;-147.65;100.00;57646.63;10412251;28;20041;-90
2023/06/30 02:36:53;;;;;;;16.33;9.77;;;;;;;-147.65;100.00;57646.63;10432008;28;20039;-87
2023/06/30 02:41:54;;;;;;;16.30;10.13;;;;;;;-147.65;100.00;57646.63;10401365;28;20051;-94
2023/06/30 02:46:54;;;;;;;18.15;11.48;;;;;;;-147.65;100.00;57646.63;10404300;28;20121;-86
2023/06/30 02:51:55;;;;;;;18.63;8.80;;;;;;;-147.65;100.00;57646.63;10393602;28;20045;-96
2023/06/30 02:56:55;;;;;;;17.23;10.70;;;;;;;-147.65;100.00;57646.63;10394609;28;20054;-94
2023/06/30 03:01:56;;;;;;;17.88;10.82;;;;;;;-147.65;100.00;57646.63;10361818;28;20041;-95
2023/06/30 03:06:56;;;;;;;22.42;10.55;;;;;;;-147.65;100.00;57646.63;10410964;28;20037;-94
2023/06/30 03:11:57;;;;;;;15.23;8.55;;;;;;;-147.65;100.00;57646.63;10419408;28;20116;-93
2023/06/30 03:16:57;;;;;;;17.80;10.60;;;;;;;-147.65;100.00;57646.63;10434314;28;20074;-82
2023/06/30 03:21:58;;;;;;;18.63;9.38;;;;;;;-147.65;100.00;57646.63;10449056;28;21585;-93
2023/06/30 03:26:59;;;;;;;12.75;8.13;;;;;;;-147.65;100.00;57646.63;10423738;28;20137;-95
2023/06/30 03:31:59;;;;;;;18.73;8.88;;;;;;;-147.65;100.00;57646.63;10450480;28;20067;-94
2023/06/30 03:37:00;;;;;;;15.63;8.05;;;;;;;-147.65;100.00;57646.63;10431968;28;20037;-93
2023/06/30 03:42:01;;;;;;;14.35;6.93;;;;;;;-147.65;100.00;57646.63;10412182;28;20028;-96
2023/06/30 03:47:01;;;;;;;14.10;7.57;;;;;;;-147.65;100.00;57646.63;10419346;28;20064;-96
2023/06/30 03:52:02;;;;;;;15.50;7.05;;;;;;;-147.65;100.00;57646.63;10470409;28;20041;-96
2023/06/30 03:57:03;;;;;;;11.75;7.35;;;;;;;-147.65;100.00;57646.63;10449106;28;20050;-95
2023/06/30 04:02:04;;;;;;;16.63;7.85;;;;;;;-147.65;100.00;57646.63;10410330;28;20037;-95
2023/06/30 04:07:05;;;;;;;18.02;6.50;;;;;;;-147.65;100.00;57646.63;10414586;28;20485;-94
2023/06/30 04:12:06;;;;;;;11.98;5.68;;;;;;;-147.65;100.00;57646.63;10403772;28;20037;-91
2023/06/30 04:17:06;;;;;;;10.90;6.18;;;;;;;-147.65;100.00;57646.63;10418993;28;20084;-94
2023/06/30 04:22:07;;;;;;;16.23;6.95;;;;;;;-147.65;100.00;57646.63;10433582;28;20123;-94
2023/06/30 04:27:07;;;;;;;11.43;6.63;;;;;;;-147.65;100.00;57646.63;10448828;28;20051;-94
2023/06/30 04:32:08;;;;;;;16.65;7.63;;;;;;;-147.65;100.00;57646.63;10448319;28;20039;-83
2023/06/30 04:37:09;;;;;;;9.13;6.65;;;;;;;-147.65;100.00;57646.63;10416998;28;20071;-95
2023/06/30 04:42:13;;;;;;;16.17;7.00;;;;;;;-147.65;100.00;57646.63;10443456;28;20410;-93
2023/06/30 04:47:16;;;;;;;15.10;7.47;;;;;;;-147.65;100.00;57646.63;10475505;28;20045;-95
2023/06/30 04:52:16;;;;;;;14.07;5.95;;;;;;;-147.65;100.00;57646.63;10464978;28;20473;-95
2023/06/30 04:57:17;;;;;;;8.85;5.40;;;;;;;-147.65;100.00;57646.63;10413181;28;20080;-87
2023/06/30 05:02:18;;;;;;;15.85;7.95;;;;;;;-147.65;100.00;57646.63;10413066;28;20400;-84
2023/06/30 05:07:19;;;;;;;17.10;6.35;;;;;;;-147.65;100.00;57646.63;10403307;28;20037;-92
2023/06/30 05:12:19;;;;;;;13.63;7.43;;;;;;;-147.65;100.00;57646.63;10772259;22;20042;-86
2023/06/30 05:17:20;;;;;;;15.30;6.65;;;;;;;-147.65;100.00;57646.63;10350973;28;20053;-85
2023/06/30 05:22:20;;;;;;;12.38;5.95;;;;;;;-147.65;100.00;57646.63;10360659;28;20122;-83
2023/06/30 05:27:21;;;;;;;11.02;7.00;;;;;;;-147.65;100.00;57646.63;10335243;28;20141;-83
2023/06/30 05:32:22;;;;;;;27.15;8.60;;;;;;;-147.65;100.00;57646.63;10346341;28;20056;-85
2023/06/30 05:37:25;;;;;;;8.98;5.15;;;;;;;-147.65;100.00;57646.63;10345959;28;20049;-85
2023/06/30 05:42:26;;;;;;;9.85;5.78;;;;;;;-147.65;100.00;57646.63;10358462;28;20052;-86
2023/06/30 05:47:27;;;;;;;8.77;4.63;;;;;;;-147.65;100.00;57646.63;10330239;28;20089;-83
2023/06/30 05:52:28;;;;;;;12.55;5.68;;;;;;;-147.65;100.00;57646.63;10346502;28;20108;-89
2023/06/30 05:57:29;;;;;;;11.80;4.72;;;;;;;-147.65;100.00;57646.63;10355843;28;20045;-82
2023/06/30 06:02:29;;;;;;;10.48;4.60;;;;;;;-147.65;100.00;57646.63;10347730;28;20049;-84
2023/06/30 06:07:30;;;;;;;12.60;4.90;;;;;;;-147.65;100.00;57646.63;10344895;28;20048;-81
2023/06/30 06:12:30;;;;;;;9.27;4.80;;;;;;;-147.65;100.00;57646.63;10348014;28;20046;-86
2023/06/30 06:17:31;;;;;;;19.08;5.75;;;;;;;-147.65;100.00;57646.63;10339432;28;20035;-82
2023/06/30 06:22:31;;;;;;;7.72;3.10;;;;;;;-147.65;100.00;57646.63;10352998;28;20103;-89
2023/06/30 06:27:35;;;;;;;19.23;4.93;;;;;;;-147.65;100.00;57646.63;10351816;28;20048;-87
2023/06/30 06:32:36;;;;;;;13.77;4.13;;;;;;;-147.65;100.00;57646.63;10358103;28;20041;-88
2023/06/30 06:37:36;;;;;;;3.83;2.47;;;;;;;-147.65;100.00;57646.63;10359470;28;20034;-88
2023/06/30 06:42:37;;;;;;;8.63;2.87;;;;;;;-147.65;100.00;57646.63;10359526;28;20048;-87
2023/06/30 06:48:35;;;;;;;9.50;3.83;;;;;;;-147.65;100.00;57646.63;10367036;28;20123;-87
2023/06/30 06:53:35;;;;;;;5.93;2.88;;;;;;;-147.65;100.00;57646.63;10276749;28;20063;-86
2023/06/30 06:58:36;;;;;;;5.97;2.50;;;;;;;-147.65;100.00;57646.63;10347014;28;20125;-88
2023/06/30 07:03:37;;;;;;;7.47;2.43;;;;;;;-147.65;100.00;57646.63;10365847;28;20057;-88
2023/06/30 07:08:39;;;;;;;8.77;2.78;;;;;;;-147.65;100.00;57646.63;10366884;28;20069;-89
2023/06/30 07:13:39;;;;;;;6.70;2.42;;;;;;;-147.65;100.00;57646.63;10366796;28;20038;-86
2023/06/30 07:18:40;;;;;;;9.88;4.35;;;;;;;-147.65;100.00;57646.63;10365600;28;20501;-86
2023/06/30 07:23:40;;;;;;;10.67;3.23;;;;;;;-147.65;100.00;57646.63;10366118;28;20124;-87
2023/06/30 07:28:41;;;;;;;7.72;2.38;;;;;;;-147.65;100.00;57646.63;10365538;28;20095;-88
2023/06/30 07:33:43;;;;;;;4.40;2.57;;;;;;;-147.65;100.00;57646.63;10366692;28;20550;-87
2023/06/30 07:38:43;;;;;;;7.32;2.53;;;;;;;-147.65;100.00;57646.63;10362429;28;20096;-86
2023/06/30 07:43:44;;;;;;;5.97;2.00;;;;;;;-147.65;100.00;57646.63;10363580;28;20173;-86
2023/06/30 07:48:44;;;;;;;5.17;2.10;;;;;;;-147.65;100.00;57646.63;10365941;28;20472;-87
2023/06/30 07:53:45;;;;;;;8.37;2.83;;;;;;;-147.65;100.00;57646.63;10364926;28;20053;-88
2023/06/30 07:58:45;;;;;;;7.83;1.90;;;;;;;-147.65;100.00;57646.63;10364798;28;20125;-87
2023/06/30 08:03:48;;;;;;;3.93;1.93;;;;;;;-147.65;100.00;57646.63;10365365;28;20042;-88
2023/06/30 08:08:48;;;;;;;5.18;2.72;;;;;;;-147.65;100.00;57646.63;10365548;28;20038;-87
2023/06/30 08:13:49;;;;;;;3.80;2.27;;;;;;;-147.65;100.00;57646.63;10362049;28;20133;-88
2023/06/30 08:18:50;;;;;;;9.40;3.38;;;;;;;-147.65;100.00;57646.63;10364189;28;20038;-87
2023/06/30 08:23:51;;;;;;;3.63;2.70;;;;;;;-147.65;100.00;57646.63;10365014;28;20495;-89
2023/06/30 08:28:51;;;;;;;5.53;2.30;;;;;;;-147.65;100.00;57646.63;10362001;28;20073;-91
2023/06/30 08:33:52;;;;;;;9.00;2.70;;;;;;;-147.65;100.00;57646.63;10357493;28;20175;-91
2023/06/30 08:38:52;;;;;;;4.57;2.27;;;;;;;-147.65;100.00;57646.63;10338344;28;20065;-92
2023/06/30 08:43:53;;;;;;;6.47;2.67;;;;;;;-147.65;100.00;57646.63;10316318;28;20492;-90
2023/06/30 08:48:54;;;;;;;5.80;2.88;;;;;;;-147.65;100.00;57646.63;10344959;28;20789;-89
2023/06/30 08:53:54;;;;;;;4.50;2.23;;;;;;;-147.65;100.00;57646.63;10360254;28;20038;-89
2023/06/30 08:58:55;;;;;;;9.77;1.80;;;;;;;-147.65;100.00;57646.63;10362394;28;20380;-90
2023/06/30 09:03:55;;;;;;;12.47;2.33;;;;;;;-147.65;100.00;57646.63;10327355;28;20088;-93
2023/06/30 09:09:03;;;;;;;6.03;2.23;;;;;;;-147.65;100.00;57646.63;10319779;28;20282;-93
2023/06/30 09:14:04;;;;;;;6.22;2.38;;;;;;;-147.65;100.00;57646.63;10315338;28;20049;-90
2023/06/30 09:19:04;;;;;;;6.93;1.70;;;;;;;-147.65;100.00;57646.63;10363150;28;20103;-93
2023/06/30 09:24:05;;;;;;;3.87;1.63;;;;;;;-147.65;100.00;57646.63;10362085;28;20099;-94
2023/06/30 09:29:09;;;;;;;6.40;1.67;;;;;;;-147.65;100.00;57646.63;10331986;28;20076;-96
2023/06/30 09:34:13;;;;;;;4.78;2.08;;;;;;;-147.65;100.00;57646.63;10280546;28;21043;-96
2023/06/30 09:39:16;;;;;;;4.20;1.65;;;;;;;-147.65;100.00;57646.63;10287083;28;20042;-92
2023/06/30 09:44:20;;;;;;;2.65;1.60;;;;;;;-147.65;100.00;57646.63;10327826;28;20132;-89
2023/06/30 09:49:32;;;;;;;6.80;2.13;;;;;;;-147.65;100.00;57646.63;10297062;28;20058;-87
2023/06/30 09:54:33;;;;;;;3.72;2.10;;;;;;;-147.65;100.00;57646.63;10279744;28;20049;-87
2023/06/30 09:59:33;;;;;;;4.32;1.63;;;;;;;-147.65;100.00;57646.63;10303040;28;20490;-87
2023/06/30 10:04:34;;;;;;;6.43;2.33;;;;;;;-147.65;100.00;57646.63;10320248;28;20034;-91
2023/06/30 10:09:35;;;;;;;4.43;2.07;;;;;;;-147.65;100.00;57646.63;10302001;28;20129;-88
2023/06/30 10:14:35;;;;;;;7.20;2.43;;;;;;;-147.65;100.00;57646.63;10303229;28;20162;-91
2023/06/30 10:19:36;;;;;;;5.90;3.10;;;;;;;-147.65;100.00;57646.63;10358142;28;20050;-88
2023/06/30 10:24:41;;;;;;;4.97;2.70;;;;;;;-147.65;100.00;57646.63;10327266;28;20068;-96
2023/06/30 10:29:42;;;;;;;8.02;3.10;;;;;;;-147.65;100.00;57646.63;10319748;28;20517;-91
2023/06/30 10:34:42;;;;;;;8.10;2.40;;;;;;;-147.65;100.00;57646.63;10340730;28;20096;-94
2023/06/30 10:39:43;;;;;;;8.40;3.07;;;;;;;-147.65;100.00;57646.63;10331618;28;20066;-90
2023/06/30 10:44:45;;;;;;;7.77;2.50;;;;;;;-147.65;100.00;57646.63;10359440;28;20505;-91
2023/06/30 10:49:45;;;;;;;8.35;2.60;;;;;;;-147.65;100.00;57646.63;10302478;28;20062;-91
2023/06/30 10:54:46;;;;;;;6.00;2.60;;;;;;;-147.65;100.00;57646.63;10285058;28;20121;-87
2023/06/30 10:59:48;;;;;;;11.15;3.00;;;;;;;-147.65;100.00;57646.63;10318732;28;20031;-92
2023/06/30 11:04:52;;;;;;;5.22;2.42;;;;;;;-147.65;100.00;57646.63;10286022;28;20046;-91
2023/06/30 11:09:52;;;;;;;7.03;2.85;;;;;;;-147.65;100.00;57646.63;10300590;28;20065;-88
2023/06/30 11:14:56;;;;;;;5.43;2.47;;;;;;;-147.65;100.00;57646.63;10321306;28;20405;-88
2023/06/30 11:20:12;;;;;;;12.52;3.58;;;;;;;-147.65;100.00;57646.63;10320186;28;20053;-88
2023/06/30 11:25:13;;;;;;;5.35;3.00;;;;;;;-147.65;100.00;57646.63;10318861;28;20128;-89
2023/06/30 11:30:18;;;;;;;7.27;2.30;;;;;;;-147.65;100.00;57646.63;10319775;28;20042;-88
2023/06/30 11:35:18;;;;;;;5.57;2.65;;;;;;;-147.65;100.00;57646.63;10356073;28;20042;-90
2023/06/30 11:40:21;;;;;;;17.63;3.50;;;;;;;-147.65;100.00;57646.63;10361201;28;20034;-90
2023/06/30 11:45:27;;;;;;;6.50;4.07;;;;;;;-147.65;100.00;57646.63;10348561;28;20060;-88
2023/06/30 11:50:29;;;;;;;9.60;2.90;;;;;;;-147.65;100.00;57646.63;10343925;28;20070;-90
2023/06/30 11:55:30;;;;;;;8.68;3.63;;;;;;;-147.65;100.00;57646.63;10308848;28;20499;-91
2023/06/30 12:00:30;;;;;;;9.13;3.10;;;;;;;-147.65;100.00;57646.63;10307753;28;20061;-89
2023/06/30 12:05:31;;;;;;;10.07;3.10;;;;;;;-147.65;100.00;57646.63;10323611;28;20049;-93
2023/06/30 12:10:38;;;;;;;9.67;3.37;;;;;;;-147.65;100.00;57646.63;10289367;28;20129;-94
2023/06/30 12:15:39;;;;;;;9.55;3.45;;;;;;;-147.65;100.00;57646.63;10307424;28;20509;-94
2023/06/30 12:20:40;;;;;;;6.93;2.97;;;;;;;-147.65;100.00;57646.63;10306525;28;20041;-91
2023/06/30 12:25:42;;;;;;;10.63;2.63;;;;;;;-147.65;100.00;57646.63;10306296;28;20047;-92
2023/06/30 12:30:43;;;;;;;6.30;2.93;;;;;;;-147.65;100.00;57646.63;10322050;28;20106;-91
2023/06/30 12:35:44;;;;;;;4.55;2.20;;;;;;;-147.65;100.00;57646.63;10322939;28;20046;-90
2023/06/30 12:40:45;;;;;;;2.80;1.80;;;;;;;-147.65;100.00;57646.63;10320845;28;20100;-88
2023/06/30 12:45:45;;;;;;;5.40;3.10;;;;;;;-147.65;100.00;57646.63;10323627;28;20042;-88
2023/06/30 12:50:46;;;;;;;8.23;3.70;;;;;;;-147.65;100.00;57646.63;10323768;28;20100;-88
2023/06/30 12:55:46;;;;;;;5.27;2.83;;;;;;;-147.65;100.00;57646.63;10321393;28;20050;-87
2023/06/30 13:00:47;;;;;;;5.27;2.37;;;;;;;-147.65;100.00;57646.63;10322652;28;20048;-86
2023/06/30 13:05:47;;;;;;;5.60;2.13;;;;;;;-147.65;100.00;57646.63;10320884;28;20038;-85
2023/06/30 13:10:54;;;;;;;5.38;2.95;;;;;;;-147.65;100.00;57646.63;10323074;28;20510;-85
2023/06/30 13:15:54;;;;;;;6.40;2.60;;;;;;;-147.65;100.00;57646.63;10320369;28;20054;-86
2023/06/30 13:20:55;;;;;;;4.20;2.33;;;;;;;-147.65;100.00;57646.63;10322295;28;20054;-87
2023/06/30 13:25:56;;;;;;;6.43;2.27;;;;;;;-147.65;100.00;57646.63;10323942;28;20478;-87
2023/06/30 13:30:56;;;;;;;5.70;2.20;;;;;;;-147.65;100.00;57646.63;10322674;28;21161;-85
2023/06/30 13:35:57;;;;;;;4.27;2.10;;;;;;;-147.65;100.00;57646.63;10321690;28;20449;-85
2023/06/30 13:40:57;;;;;;;3.80;2.40;;;;;;;-147.65;100.00;57646.63;10321299;28;20180;-86
2023/06/30 13:45:59;;;;;;;7.83;2.60;;;;;;;-147.65;100.00;57646.63;10321895;28;20034;-86
2023/06/30 13:50:59;;;;;;;4.38;2.80;;;;;;;-147.65;100.00;57646.63;10319542;28;20134;-85
2023/06/30 13:56:00;;;;;;;6.43;2.50;;;;;;;-147.65;100.00;57646.63;10303598;28;20380;-86
2023/06/30 14:01:00;;;;;;;6.10;2.90;;;;;;;-147.65;100.00;57646.63;10322533;28;20113;-85
2023/06/30 14:06:01;;;;;;;3.80;2.07;;;;;;;-147.65;100.00;57646.63;10312807;28;20399;-83
2023/06/30 14:11:02;;;;;;;7.75;3.53;;;;;;;-147.65;100.00;57646.63;10317525;28;20045;-85
2023/06/30 14:16:03;;;;;;;7.60;3.23;;;;;;;-147.65;100.00;57646.63;10309014;28;20089;-88
2023/06/30 14:21:03;;;;;;;5.23;2.67;;;;;;;-147.65;100.00;57646.63;10317845;28;20093;-85
2023/06/30 14:26:04;;;;;;;10.23;2.97;;;;;;;-147.65;100.00;57646.63;10347647;28;20030;-86
2023/06/30 14:31:04;;;;;;;6.43;3.97;;;;;;;-147.65;100.00;57646.63;10358236;28;20436;-84
2023/06/30 14:36:05;;;;;;;4.37;3.00;;;;;;;-147.65;100.00;57646.63;10360206;28;20486;-84
2023/06/30 14:41:05;;;;;;;9.97;3.93;;;;;;;-147.65;100.00;57646.63;10356327;28;20056;-87
2023/06/30 14:46:06;;;;;;;7.50;4.23;;;;;;;-147.65;100.00;57646.63;10356197;28;20099;-87
2023/06/30 14:51:07;;;;;;;6.13;4.33;;;;;;;-147.65;100.00;57646.63;10353545;28;20037;-87
2023/06/30 14:56:07;;;;;;;6.63;3.10;;;;;;;-147.65;100.00;57646.63;10359062;28;20041;-89
2023/06/30 15:01:08;;;;;;;21.63;4.73;;;;;;;-147.65;100.00;57646.63;10360105;28;20041;-87
2023/06/30 15:06:08;;;;;;;7.43;4.20;;;;;;;-147.65;100.00;57646.63;10360189;28;20136;-87
2023/06/30 15:11:09;;;;;;;9.37;3.57;;;;;;;-147.65;100.00;57646.63;10327973;28;20109;-86
2023/06/30 15:16:09;;;;;;;9.73;3.70;;;;;;;-147.65;100.00;57646.63;10337696;28;20050;-85
2023/06/30 15:21:10;;;;;;;7.33;3.37;;;;;;;-147.65;100.00;57646.63;10359138;28;20050;-87
2023/06/30 15:26:11;;;;;;;5.67;2.47;;;;;;;-147.65;100.00;57646.63;10361885;28;20482;-92
2023/06/30 15:31:12;;;;;;;7.63;2.90;;;;;;;-147.65;100.00;57646.63;10360003;28;20034;-86
2023/06/30 15:36:13;;;;;;;7.00;2.30;;;;;;;-147.65;100.00;57646.63;10351245;28;20541;-92
2023/06/30 15:41:15;;;;;;;3.83;2.80;;;;;;;-147.65;100.00;57646.63;10364395;28;20537;-87
2023/06/30 15:46:16;;;;;;;7.53;2.63;;;;;;;-147.65;100.00;57646.63;10350613;28;20038;-89
2023/06/30 15:51:19;;;;;;;5.75;2.53;;;;;;;-147.65;100.00;57646.63;10349670;28;20554;-91
2023/06/30 15:56:21;;;;;;;6.53;2.92;;;;;;;-147.65;100.00;57646.63;10350142;28;20041;-92
2023/06/30 16:01:22;;;;;;;11.07;2.53;;;;;;;-147.65;100.00;57646.63;10373851;28;20042;-86
2023/06/30 16:06:23;;;;;;;4.10;2.57;;;;;;;-147.65;100.00;57646.63;10359208;28;20054;-94
2023/06/30 16:11:24;;;;;;;7.83;3.10;;;;;;;-147.65;100.00;57646.63;10329998;28;20053;-88
2023/06/30 16:16:24;;;;;;;4.23;2.27;;;;;;;-147.65;100.00;57646.63;10355765;28;20498;-86
2023/06/30 16:21:25;;;;;;;3.40;2.27;;;;;;;-147.65;100.00;57646.63;10346963;28;20121;-84
2023/06/30 16:26:26;;;;;;;4.40;2.17;;;;;;;-147.65;100.00;57646.63;10326361;28;20045;-84
2023/06/30 16:31:27;;;;;;;3.15;2.13;;;;;;;-147.65;100.00;57646.63;10330914;28;20042;-86
2023/06/30 16:36:30;;;;;;;2.40;1.43;;;;;;;-147.65;100.00;57646.63;10320338;28;20073;-92
2023/06/30 16:41:30;;;;;;;7.20;1.95;;;;;;;-147.65;100.00;57646.63;10318650;28;20497;-93
2023/06/30 16:46:31;;;;;;;3.00;2.03;;;;;;;-147.65;100.00;57646.63;10321106;28;20045;-87
2023/06/30 16:51:32;;;;;;;5.10;1.90;;;;;;;-147.65;100.00;57646.63;10325977;28;20116;-87
2023/06/30 16:56:32;;;;;;;6.33;1.90;;;;;;;-147.65;100.00;57646.63;10318299;28;20043;-86
2023/06/30 17:01:33;;;;;;;5.47;2.00;;;;;;;-147.65;100.00;57646.63;10315428;28;20046;-85
2023/06/30 17:06:33;;;;;;;2.97;1.50;;;;;;;-147.65;100.00;57646.63;10322530;28;20121;-93
2023/06/30 17:11:34;;;;;;;1.93;1.53;;;;;;;-147.65;100.00;57646.63;10298153;28;20133;-94
2023/06/30 17:16:34;;;;;;;4.22;2.15;;;;;;;-147.65;100.00;57646.63;10269223;28;20097;-90
2023/06/30 17:21:38;;;;;;;7.50;2.25;;;;;;;-147.65;100.00;57646.63;10278856;28;20042;-91
2023/06/30 17:26:39;;;;;;;4.55;2.22;;;;;;;-147.65;100.00;57646.63;10302949;28;20033;-87
2023/06/30 17:31:39;;;;;;;22.60;4.47;;;;;;;-147.65;100.00;57646.63;10338488;28;20034;-87
2023/06/30 17:36:40;;;;;;;4.93;1.90;;;;;;;-147.65;100.00;57646.63;10344893;28;20054;-90
2023/06/30 17:41:40;;;;;;;6.63;1.67;;;;;;;-147.65;100.00;57646.63;10305490;28;20030;-90
2023/06/30 17:46:41;;;;;;;2.92;1.52;;;;;;;-147.65;100.00;57646.63;10337159;28;20177;-93
2023/06/30 17:51:41;;;;;;;3.53;1.73;;;;;;;-147.65;100.00;57646.63;10332888;28;20073;-93
2023/06/30 17:56:42;;;;;;;7.07;2.55;;;;;;;-147.65;100.00;57646.63;10358711;28;20045;-88
2023/06/30 18:01:43;;;;;;;4.60;2.83;;;;;;;-147.65;100.00;57646.63;10360830;28;20026;-88
2023/06/30 18:07:07;;;;;;;2.83;1.80;;;;;;;-147.65;100.00;57646.63;10360669;28;20048;-84
2023/06/30 18:12:08;;;;;;;5.93;2.42;;;;;;;-147.65;100.00;57646.63;10307486;28;20050;-91
2023/06/30 18:17:08;;;;;;;5.70;2.17;;;;;;;-147.65;100.00;57646.63;10316877;28;20112;-86
2023/06/30 18:22:09;;;;;;;9.43;3.42;;;;;;;-147.65;100.00;57646.63;10268927;28;20097;-87
2023/06/30 18:27:09;;;;;;;3.25;2.28;;;;;;;-147.65;100.00;57646.63;10283584;28;20035;-87
2023/06/30 18:32:10;;;;;;;7.25;2.20;;;;;;;-147.65;100.00;57646.63;10308589;28;20378;-87
2023/06/30 18:37:10;;;;;;;2.40;1.75;;;;;;;-147.65;100.00;57646.63;10316282;28;20526;-87
2023/06/30 18:42:11;;;;;;;7.55;3.25;;;;;;;-147.65;100.00;57646.63;10324953;28;20034;-87
2023/06/30 18:47:11;;;;;;;4.18;2.50;;;;;;;-147.65;100.00;57646.63;10308972;28;20122;-86
2023/06/30 18:52:14;;;;;;;3.95;2.28;;;;;;;-147.65;100.00;57646.63;10312262;28;20043;-84
2023/06/30 18:57:14;;;;;;;;;;;;;;;-147.65;100.00;57646.63;10313905;28;20463;-86
2023/06/30 19:02:14;;;;;;;5.15;2.38;;;;;;;-147.65;100.00;57646.63;10357627;28;19993;-95
2023/06/30 19:07:15;;;;;;;3.40;1.90;;;;;;;-147.65;100.00;57646.63;10366218;28;20095;-90
2023/06/30 19:12:16;;;;;;;7.07;2.72;;;;;;;-147.65;100.00;57646.63;10366177;28;20046;-93
2023/06/30 19:17:16;;;;;;;3.30;1.73;;;;;;;-147.65;100.00;57646.63;10357535;28;20066;-88
2023/06/30 19:22:17;;;;;;;5.45;2.58;;;;;;;-147.65;100.00;57646.63;10363822;28;20379;-88
2023/06/30 19:27:17;;;;;;;3.78;2.17;;;;;;;-147.65;100.00;57646.63;10358988;28;20073;-85
2023/06/30 19:32:18;;;;;;;4.80;2.20;;;;;;;-147.65;100.00;57646.63;10364564;28;20037;-87
2023/06/30 19:37:18;;;;;;;7.15;3.65;;;;;;;-147.65;100.00;57646.63;10350613;28;20104;-87
2023/06/30 19:42:19;;;;;;;9.40;3.33;;;;;;;-147.65;100.00;57646.63;10345031;28;20136;-85
2023/06/30 19:47:20;;;;;;;15.02;6.03;;;;;;;-147.65;100.00;57646.63;10363546;28;20123;-85
2023/06/30 19:52:20;;;;;;;4.20;3.42;;;;;;;-147.65;100.00;57646.63;10361472;28;20127;-88
2023/06/30 19:57:21;;;;;;;8.82;2.70;;;;;;;-147.65;100.00;57646.63;10356870;28;20046;-79
2023/06/30 20:02:21;;;;;;;9.13;3.17;;;;;;;-147.65;100.00;57646.63;10363293;28;20116;-84
2023/06/30 20:07:22;;;;;;;8.20;2.75;;;;;;;-147.65;100.00;57646.63;10361978;28;20060;-84
2023/06/30 20:12:22;;;;;;;5.57;3.10;;;;;;;-147.65;100.00;57646.63;10358747;28;20034;-88
2023/06/30 20:17:23;;;;;;;6.50;3.63;;;;;;;-147.65;100.00;57646.63;10358623;28;20033;-84
2023/06/30 20:22:24;;;;;;;5.95;3.28;;;;;;;-147.65;100.00;57646.63;10366507;28;20060;-90
2023/06/30 20:27:24;;;;;;;5.28;3.15;;;;;;;-147.65;100.00;57646.63;10322115;28;20560;-87
2023/06/30 20:32:25;;;;;;;4.40;2.78;;;;;;;-147.65;100.00;57646.63;10362057;28;20044;-87
2023/06/30 20:37:25;;;;;;;7.53;2.45;;;;;;;-147.65;100.00;57646.63;10362336;28;20045;-85
2023/06/30 20:42:27;;;;;;;5.60;2.65;;;;;;;-147.65;100.00;57646.63;10362463;28;20505;-86
2023/06/30 20:47:27;;;;;;;5.80;2.90;;;;;;;-147.65;100.00;57646.63;10362589;28;20492;-84
2023/06/30 20:52:29;;;;;;;12.10;2.92;;;;;;;-147.65;100.00;57646.63;10359917;28;20065;-84
2023/06/30 20:57:29;;;;;;;7.00;2.87;;;;;;;-147.65;100.00;57646.63;10361655;28;20050;-84
2023/06/30 21:02:30;;;;;;;6.38;2.80;;;;;;;-147.65;100.00;57646.63;10316353;28;20516;-83
2023/06/30 21:07:30;;;;;;;7.88;2.85;;;;;;;-147.65;100.00;57646.63;10327988;28;20041;-86
2023/06/30 21:12:35;;;;;;;15.65;3.38;;;;;;;-147.65;100.00;57646.63;10358645;28;20049;-85
2023/06/30 21:17:36;;;;;;;13.20;6.00;;;;;;;-147.65;100.00;57646.63;10361120;28;20449;-86
2023/06/30 21:22:36;;;;;;;6.82;3.47;;;;;;;-147.65;100.00;57646.63;10342013;28;20045;-86
2023/06/30 21:27:37;;;;;;;13.75;3.13;;;;;;;-147.65;100.00;57646.63;10361212;28;20437;-84
2023/06/30 21:32:37;;;;;;;12.10;4.70;;;;;;;-147.65;100.00;57646.63;10350827;28;20104;-82
2023/06/30 21:37:38;;;;;;;8.52;3.75;;;;;;;-147.65;100.00;57646.63;10350465;28;20038;-81
2023/06/30 21:42:38;;;;;;;7.60;3.60;;;;;;;-147.65;100.00;57646.63;10354072;28;20130;-81
2023/06/30 21:47:39;;;;;;;20.75;4.65;;;;;;;-147.65;100.00;57646.63;10349210;28;20034;-81
2023/06/30 21:52:39;;;;;;;4.18;2.75;;;;;;;-147.65;100.00;57646.63;10355395;28;20033;-82
2023/06/30 21:57:40;;;;;;;5.18;3.00;;;;;;;-147.65;100.00;57646.63;10356802;28;20041;-83
2023/06/30 22:02:41;;;;;;;8.55;3.05;;;;;;;-147.65;100.00;57646.63;10364073;28;20046;-83
2023/06/30 22:07:42;;;;;;;5.37;3.83;;;;;;;-147.65;100.00;57646.63;10357723;28;20046;-84
2023/06/30 22:12:42;;;;;;;6.40;3.22;;;;;;;-147.65;100.00;57646.63;10337787;28;20038;-84
2023/06/30 22:17:43;;;;;;;5.35;3.05;;;;;;;-147.65;100.00;57646.63;10353308;28;20108;-83
2023/06/30 22:22:43;;;;;;;5.88;3.35;;;;;;;-147.65;100.00;57646.63;10339721;28;20050;-83
2023/06/30 22:27:44;;;;;;;6.28;3.58;;;;;;;-147.65;100.00;57646.63;10340406;28;20092;-83